createdAt,value
2023-04-06T00:02:12.709Z,100.00
2023-04-06T00:04:40.227Z,100.00
2023-04-06T00:07:07.555Z,100.00
2023-04-06T00:09:35.183Z,100.00
2023-04-06T00:12:03.775Z,100.00
2023-04-06T00:14:33.192Z,100.00
2023-04-06T00:17:01.724Z,100.00
2023-04-06T00:19:30.056Z,100.00
2023-04-06T00:21:57.599Z,100.00
2023-04-06T00:24:25.959Z,100.00
2023-04-06T00:26:53.511Z,100.00
2023-04-06T00:29:21.239Z,100.00
2023-04-06T00:31:49.495Z,100.00
2023-04-06T00:34:17.922Z,100.00
2023-04-06T00:36:46.351Z,100.00
2023-04-06T00:39:13.841Z,100.00
2023-04-06T00:41:49.331Z,100.00
2023-04-06T00:44:17.026Z,100.00
2023-04-06T00:46:46.859Z,100.00
2023-04-06T00:49:14.447Z,100.00
2023-04-06T00:51:42.965Z,100.00
2023-04-06T00:54:17.097Z,100.00
2023-04-06T00:56:45.816Z,100.00
2023-04-06T00:59:13.787Z,100.00
2023-04-06T01:01:41.648Z,100.00
2023-04-06T01:04:10.195Z,100.00
2023-04-06T01:06:37.513Z,100.00
2023-04-06T01:09:07.178Z,100.00
2023-04-06T01:11:34.824Z,100.00
2023-04-06T01:14:02.263Z,100.00
2023-04-06T01:16:30.849Z,100.00
2023-04-06T01:19:11.990Z,100.00
2023-04-06T01:21:40.769Z,100.00
2023-04-06T01:24:09.340Z,100.00
2023-04-06T01:26:36.924Z,100.00
2023-04-06T01:29:05.612Z,100.00
2023-04-06T01:31:33.689Z,100.00
2023-04-06T01:34:01.493Z,100.00
2023-04-06T01:36:35.110Z,100.00
2023-04-06T01:39:03.611Z,100.00
2023-04-06T01:41:31.041Z,100.00
2023-04-06T01:43:58.444Z,100.00
2023-04-06T01:46:25.950Z,100.00
2023-04-06T01:48:54.353Z,100.00
2023-04-06T01:51:22.931Z,100.00
2023-04-06T01:53:50.724Z,100.00
2023-04-06T01:56:18.252Z,100.00
2023-04-06T01:58:45.884Z,100.00
2023-04-06T02:01:13.185Z,100.00
2023-04-06T02:03:40.610Z,100.00
2023-04-06T02:06:08.120Z,100.00
2023-04-06T02:08:35.701Z,100.00
2023-04-06T02:11:04.102Z,100.00
2023-04-06T02:13:31.634Z,100.00
2023-04-06T02:15:59.369Z,100.00
2023-04-06T02:18:27.025Z,100.00
2023-04-06T02:20:54.497Z,100.00
2023-04-06T02:23:22.856Z,100.00
2023-04-06T02:25:50.404Z,100.00
2023-04-06T02:28:18.852Z,100.00
2023-04-06T02:30:46.593Z,100.00
2023-04-06T02:33:13.666Z,100.00
2023-04-06T02:35:41.317Z,100.00
2023-04-06T02:38:08.605Z,100.00
2023-04-06T02:40:36.063Z,100.00
2023-04-06T02:43:03.506Z,100.00
2023-04-06T02:45:31.177Z,100.00
2023-04-06T02:47:58.590Z,100.00
2023-04-06T02:50:27.945Z,100.00
2023-04-06T02:52:55.490Z,100.00
2023-04-06T02:55:23.075Z,100.00
2023-04-06T02:57:50.340Z,100.00
2023-04-06T03:00:19.210Z,100.00
2023-04-06T03:02:46.488Z,100.00
2023-04-06T03:05:13.709Z,100.00
2023-04-06T03:07:40.977Z,100.00
2023-04-06T03:10:11.110Z,100.00
2023-04-06T03:12:38.785Z,100.00
2023-04-06T03:15:07.503Z,100.00
2023-04-06T03:17:34.705Z,100.00
2023-04-06T03:20:02.059Z,100.00
2023-04-06T03:22:30.442Z,100.00
2023-04-06T03:24:57.995Z,100.00
2023-04-06T03:27:26.458Z,100.00
2023-04-06T03:29:55.025Z,100.00
2023-04-06T03:32:28.035Z,100.00
2023-04-06T03:34:55.613Z,100.00
2023-04-06T03:37:25.015Z,100.00
2023-04-06T03:39:53.292Z,100.00
2023-04-06T03:42:21.706Z,100.00
2023-04-06T03:44:48.908Z,100.00
2023-04-06T03:47:16.450Z,100.00
2023-04-06T03:49:45.914Z,100.00
2023-04-06T03:52:13.421Z,100.00
2023-04-06T03:54:41.070Z,100.00
2023-04-06T03:57:08.440Z,100.00
2023-04-06T03:59:35.753Z,100.00
2023-04-06T04:02:03.230Z,100.00
2023-04-06T04:04:30.628Z,100.00
2023-04-06T04:06:57.693Z,100.00
2023-04-06T04:09:25.487Z,100.00
2023-04-06T04:11:54.620Z,100.00
2023-04-06T04:14:22.204Z,100.00
2023-04-06T04:16:49.576Z,100.00
2023-04-06T04:19:17.864Z,100.00
2023-04-06T04:21:47.250Z,100.00
2023-04-06T04:24:15.060Z,100.00
2023-04-06T04:26:42.589Z,100.00
2023-04-06T04:29:11.258Z,100.00
2023-04-06T04:31:38.383Z,100.00
2023-04-06T04:34:08.140Z,100.00
2023-04-06T04:36:36.417Z,100.00
2023-04-06T04:39:03.940Z,100.00
2023-04-06T04:41:31.522Z,100.00
2023-04-06T04:43:59.849Z,100.00
2023-04-06T04:46:29.216Z,100.00
2023-04-06T04:48:57.891Z,100.00
2023-04-06T04:51:26.415Z,100.00
2023-04-06T04:53:55.580Z,100.00
2023-04-06T04:56:22.636Z,100.00
2023-04-06T04:58:51.409Z,100.00
2023-04-06T05:01:18.993Z,100.00
2023-04-06T05:03:46.535Z,100.00
2023-04-06T05:06:13.948Z,100.00
2023-04-06T05:08:42.397Z,100.00
2023-04-06T05:11:10.801Z,100.00
2023-04-06T05:13:38.411Z,100.00
2023-04-06T05:16:08.104Z,100.00
2023-04-06T05:18:36.649Z,100.00
2023-04-06T05:21:04.842Z,100.00
2023-04-06T05:23:32.353Z,100.00
2023-04-06T05:26:00.176Z,100.00
2023-04-06T05:28:27.237Z,100.00
2023-04-06T05:30:58.184Z,100.00
2023-04-06T05:33:26.523Z,100.00
2023-04-06T05:35:53.648Z,100.00
2023-04-06T05:38:21.236Z,100.00
2023-04-06T05:40:49.522Z,100.00
2023-04-06T05:43:16.967Z,100.00
2023-04-06T05:45:46.866Z,100.00
2023-04-06T05:48:14.110Z,100.00
2023-04-06T05:50:41.372Z,100.00
2023-04-06T05:53:08.942Z,100.00
2023-04-06T05:55:36.472Z,100.00
2023-04-06T05:58:03.779Z,100.00
2023-04-06T06:00:32.482Z,100.00
2023-04-06T06:03:05.578Z,100.00
2023-04-06T06:05:38.889Z,100.00
2023-04-06T06:08:05.900Z,100.00
2023-04-06T06:10:33.451Z,100.00
2023-04-06T06:13:00.792Z,100.00
2023-04-06T06:15:28.362Z,100.00
2023-04-06T06:17:55.810Z,100.00
2023-04-06T06:20:23.330Z,100.00
2023-04-06T06:22:51.753Z,100.00
2023-04-06T06:25:18.798Z,100.00
2023-04-06T06:27:46.200Z,100.00
2023-04-06T06:30:13.704Z,100.00
2023-04-06T06:32:41.390Z,100.00
2023-04-06T06:35:09.353Z,100.00
2023-04-06T06:37:36.502Z,100.00
2023-04-06T06:40:04.086Z,100.00
2023-04-06T06:42:38.234Z,100.00
2023-04-06T06:45:06.016Z,100.00
2023-04-06T06:47:33.725Z,99.83
2023-04-06T06:50:01.186Z,99.50
2023-04-06T06:52:30.139Z,99.23
2023-04-06T06:54:58.032Z,98.59
2023-04-06T06:57:27.757Z,98.02
2023-04-06T06:59:54.991Z,96.90
2023-04-06T07:02:22.274Z,95.59
2023-04-06T07:04:51.018Z,94.27
2023-04-06T07:07:18.315Z,92.77
2023-04-06T07:09:45.747Z,91.61
2023-04-06T07:12:13.101Z,91.09
2023-04-06T07:14:40.799Z,89.97
2023-04-06T07:17:08.258Z,89.13
2023-04-06T07:19:35.454Z,88.11
2023-04-06T07:22:03.752Z,86.76
2023-04-06T07:24:30.990Z,84.45
2023-04-06T07:27:00.224Z,82.99
2023-04-06T07:29:27.940Z,82.32
2023-04-06T07:31:57.537Z,80.78
2023-04-06T07:34:25.888Z,80.29
2023-04-06T07:36:55.085Z,80.09
2023-04-06T07:39:22.263Z,79.97
2023-04-06T07:41:49.852Z,79.25
2023-04-06T07:44:18.353Z,78.90
2023-04-06T07:46:45.690Z,79.17
2023-04-06T07:49:13.590Z,78.76
2023-04-06T07:51:41.414Z,77.31
2023-04-06T07:54:08.868Z,74.05
2023-04-06T07:56:36.114Z,73.45
2023-04-06T07:59:04.303Z,73.81
2023-04-06T08:01:31.891Z,72.61
2023-04-06T08:03:59.751Z,71.09
2023-04-06T08:06:27.570Z,70.22
2023-04-06T08:08:55.371Z,68.73
2023-04-06T08:11:23.180Z,68.82
2023-04-06T08:13:51.498Z,67.96
2023-04-06T08:16:18.872Z,67.47
2023-04-06T08:18:48.344Z,67.01
2023-04-06T08:21:16.058Z,66.94
2023-04-06T08:23:44.613Z,64.91
2023-04-06T08:26:12.082Z,63.17
2023-04-06T08:28:39.597Z,61.92
2023-04-06T08:31:08.428Z,61.20
2023-04-06T08:33:40.445Z,61.18
2023-04-06T08:36:12.692Z,60.16
2023-04-06T08:38:41.343Z,60.73
2023-04-06T08:41:15.566Z,59.03
2023-04-06T08:43:50.654Z,58.33
2023-04-06T08:46:19.211Z,59.69
2023-04-06T08:48:47.430Z,58.41
2023-04-06T08:51:15.273Z,58.72
2023-04-06T08:53:43.373Z,58.16
2023-04-06T08:56:11.842Z,56.25
2023-04-06T08:58:41.834Z,56.47
2023-04-06T09:01:12.872Z,55.43
2023-04-06T09:03:42.143Z,54.52
2023-04-06T09:06:10.426Z,53.66
2023-04-06T09:08:40.590Z,52.55
2023-04-06T09:11:08.741Z,53.12
2023-04-06T09:13:51.301Z,55.12
2023-04-06T09:16:20.071Z,54.29
2023-04-06T09:18:48.284Z,53.64
2023-04-06T09:21:20.645Z,53.60
2023-04-06T09:23:59.541Z,52.88
2023-04-06T09:26:26.998Z,50.71
2023-04-06T09:28:58.935Z,52.17
2023-04-06T09:31:28.436Z,51.74
2023-04-06T09:33:56.584Z,50.67
2023-04-06T09:36:36.976Z,51.02
2023-04-06T09:39:06.250Z,50.44
2023-04-06T09:41:36.769Z,51.68
2023-04-06T09:44:12.736Z,51.57
2023-04-06T09:46:57.639Z,49.21
2023-04-06T09:49:29.604Z,50.42
2023-04-06T09:52:10.288Z,50.00
2023-04-06T09:54:39.889Z,48.14
2023-04-06T09:57:45.754Z,46.90
2023-04-06T10:00:20.342Z,48.65
2023-04-06T10:02:59.514Z,47.60
2023-04-06T10:05:44.076Z,47.60
2023-04-06T10:08:12.254Z,48.23
2023-04-06T10:10:39.784Z,48.17
2023-04-06T10:13:07.385Z,46.36
2023-04-06T10:15:36.153Z,46.95
2023-04-06T10:18:04.924Z,46.20
2023-04-06T10:21:10.290Z,44.62
2023-04-06T10:23:43.088Z,44.31
2023-04-06T10:26:17.625Z,44.66
2023-04-06T10:28:48.202Z,43.65
2023-04-06T10:31:16.030Z,42.12
2023-04-06T10:33:55.968Z,41.98
2023-04-06T10:36:26.868Z,43.10
2023-04-06T10:39:06.457Z,42.34
2023-04-06T10:41:43.537Z,42.65
2023-04-06T10:44:25.278Z,42.10
2023-04-06T10:47:02.986Z,42.41
2023-04-06T10:49:31.292Z,39.34
2023-04-06T10:51:59.065Z,40.99
2023-04-06T10:54:29.454Z,41.70
2023-04-06T10:56:57.844Z,41.36
2023-04-06T10:59:26.716Z,39.83
2023-04-06T11:01:57.197Z,39.85
2023-04-06T11:04:25.161Z,40.51
2023-04-06T11:06:52.316Z,40.13
2023-04-06T11:09:32.832Z,39.80
2023-04-06T11:12:00.093Z,40.05
2023-04-06T11:14:27.977Z,40.84
2023-04-06T11:16:55.379Z,40.82
2023-04-06T11:19:22.710Z,38.52
2023-04-06T11:21:50.805Z,39.64
2023-04-06T11:24:25.299Z,40.34
2023-04-06T11:27:02.265Z,40.43
2023-04-06T11:29:36.777Z,41.34
2023-04-06T11:32:06.986Z,40.45
2023-04-06T11:34:40.872Z,41.02
2023-04-06T11:37:13.515Z,40.74
2023-04-06T11:39:52.652Z,40.48
2023-04-06T11:42:29.497Z,39.05
2023-04-06T11:45:01.689Z,41.26
2023-04-06T11:47:37.800Z,40.24
2023-04-06T11:50:15.382Z,39.56
2023-04-06T11:52:43.937Z,38.64
2023-04-06T11:55:19.281Z,38.51
2023-04-06T11:57:46.806Z,39.83
2023-04-06T12:00:14.745Z,40.06
2023-04-06T12:02:47.654Z,41.41
2023-04-06T12:05:14.906Z,41.08
2023-04-06T12:10:09.690Z,39.67
2023-04-06T12:12:37.080Z,38.45
2023-04-06T12:15:06.384Z,40.44
2023-04-06T12:17:39.676Z,39.86
2023-04-06T12:20:18.074Z,39.24
2023-04-06T12:22:51.992Z,39.04
2023-04-06T12:25:19.163Z,39.33
2023-04-06T12:27:46.697Z,39.77
2023-04-06T12:30:15.342Z,39.55
2023-04-06T12:32:42.476Z,41.23
2023-04-06T12:35:12.832Z,40.20
2023-04-06T12:37:41.557Z,39.43
2023-04-06T12:40:11.819Z,39.59
2023-04-06T12:42:42.021Z,39.87
2023-04-06T12:45:10.259Z,40.47
2023-04-06T12:47:39.077Z,41.19
2023-04-06T12:50:07.882Z,41.71
2023-04-06T12:52:36.613Z,41.79
2023-04-06T12:55:06.400Z,42.48
2023-04-06T12:57:34.060Z,42.49
2023-04-06T13:00:01.544Z,41.86
2023-04-06T13:02:29.040Z,42.55
2023-04-06T13:04:56.365Z,41.90
2023-04-06T13:07:23.945Z,41.10
2023-04-06T13:09:52.826Z,41.84
2023-04-06T13:12:20.251Z,41.55
2023-04-06T13:14:52.196Z,41.50
2023-04-06T13:17:19.337Z,43.50
2023-04-06T13:19:46.826Z,41.36
2023-04-06T13:22:14.737Z,42.61
2023-04-06T13:24:42.207Z,42.41
2023-04-06T13:27:13.799Z,43.39
2023-04-06T13:29:41.344Z,43.41
2023-04-06T13:32:11.158Z,43.14
2023-04-06T13:34:38.775Z,43.66
2023-04-06T13:37:06.120Z,44.13
2023-04-06T13:39:33.701Z,44.08
2023-04-06T13:42:02.842Z,43.68
2023-04-06T13:44:31.997Z,44.57
2023-04-06T13:47:05.867Z,44.89
2023-04-06T13:49:33.935Z,44.76
2023-04-06T13:52:04.728Z,44.88
2023-04-06T13:54:34.099Z,44.84
2023-04-06T13:57:02.864Z,44.32
2023-04-06T13:59:40.518Z,44.76
2023-04-06T14:02:10.926Z,44.92
2023-04-06T14:04:38.550Z,45.23
2023-04-06T14:07:08.539Z,44.38
2023-04-06T14:09:35.901Z,44.62
2023-04-06T14:12:03.209Z,44.31
2023-04-06T14:14:30.767Z,45.07
2023-04-06T14:16:58.167Z,45.45
2023-04-06T14:19:25.697Z,44.79
2023-04-06T14:21:52.991Z,45.44
2023-04-06T14:24:22.502Z,44.58
2023-04-06T14:26:49.495Z,44.65
2023-04-06T14:29:17.963Z,44.76
2023-04-06T14:31:48.366Z,44.65
2023-04-06T14:34:17.146Z,44.97
2023-04-06T14:36:44.515Z,45.73
2023-04-06T14:39:11.892Z,45.23
2023-04-06T14:41:39.445Z,46.00
2023-04-06T14:44:06.913Z,45.91
2023-04-06T14:46:34.648Z,44.92
2023-04-06T14:49:02.250Z,45.23
2023-04-06T14:51:29.949Z,46.07
2023-04-06T14:53:57.718Z,46.07
2023-04-06T14:56:25.997Z,46.52
2023-04-06T14:58:55.096Z,45.58
2023-04-06T15:01:22.739Z,45.00
2023-04-06T15:03:50.486Z,45.24
2023-04-06T15:06:21.735Z,44.54
2023-04-06T15:08:50.588Z,45.12
2023-04-06T15:11:18.228Z,45.49
2023-04-06T15:13:45.595Z,46.41
2023-04-06T15:16:13.006Z,46.93
2023-04-06T15:18:40.757Z,46.73
2023-04-06T15:21:08.465Z,46.62
2023-04-06T15:23:35.983Z,46.32
2023-04-06T15:26:05.454Z,45.90
2023-04-06T15:28:32.481Z,46.05
2023-04-06T15:31:01.031Z,46.00
2023-04-06T15:33:34.487Z,46.99
2023-04-06T15:36:08.076Z,46.63
2023-04-06T15:38:35.192Z,46.11
2023-04-06T15:41:04.004Z,46.12
2023-04-06T15:43:31.531Z,46.10
2023-04-06T15:45:58.852Z,46.14
2023-04-06T15:48:26.310Z,47.19
2023-04-06T15:50:53.715Z,47.22
2023-04-06T15:53:21.194Z,47.95
2023-04-06T15:55:49.671Z,48.15
2023-04-06T15:58:17.187Z,47.65
2023-04-06T16:00:45.691Z,47.46
2023-04-06T16:03:13.352Z,47.50
2023-04-06T16:05:53.706Z,47.89
2023-04-06T16:08:26.999Z,48.59
2023-04-06T16:10:54.378Z,49.19
2023-04-06T16:13:28.283Z,48.38
2023-04-06T16:15:55.764Z,49.15
2023-04-06T16:18:24.023Z,48.26
2023-04-06T16:20:51.580Z,49.14
2023-04-06T16:23:18.941Z,49.85
2023-04-06T16:25:46.719Z,50.34
2023-04-06T16:28:14.394Z,49.51
2023-04-06T16:30:43.644Z,49.64
2023-04-06T16:33:13.375Z,49.62
2023-04-06T16:35:45.736Z,49.40
2023-04-06T16:38:13.858Z,50.03
2023-04-06T16:40:41.280Z,50.35
2023-04-06T16:43:10.223Z,49.93
2023-04-06T16:45:38.778Z,50.52
2023-04-06T16:48:06.935Z,50.80
2023-04-06T16:50:36.695Z,50.53
2023-04-06T16:53:04.271Z,51.08
2023-04-06T16:55:31.657Z,50.59
2023-04-06T16:57:59.128Z,50.57
2023-04-06T17:00:26.658Z,51.22
2023-04-06T17:02:54.306Z,51.66
2023-04-06T17:05:25.021Z,51.60
2023-04-06T17:07:52.608Z,51.93
2023-04-06T17:10:28.742Z,52.06
2023-04-06T17:13:06.395Z,52.56
2023-04-06T17:15:33.864Z,51.99
2023-04-06T17:18:02.857Z,52.41
2023-04-06T17:20:30.424Z,51.55
2023-04-06T17:22:57.687Z,51.73
2023-04-06T17:25:26.318Z,52.44
2023-04-06T17:27:53.567Z,52.28
2023-04-06T17:30:21.591Z,52.31
2023-04-06T17:32:49.113Z,52.58
2023-04-06T17:35:16.703Z,53.14
2023-04-06T17:37:46.068Z,52.77
2023-04-06T17:40:13.551Z,52.92
2023-04-06T17:42:40.961Z,53.15
2023-04-06T17:45:08.579Z,53.57
2023-04-06T17:47:36.367Z,53.42
2023-04-06T17:50:04.000Z,53.30
2023-04-06T17:52:32.202Z,53.25
2023-04-06T17:54:59.888Z,54.00
2023-04-06T17:57:27.798Z,54.41
2023-04-06T17:59:55.295Z,55.13
2023-04-06T18:02:23.193Z,55.75
2023-04-06T18:05:00.053Z,55.89
2023-04-06T18:07:27.265Z,55.74
2023-04-06T18:09:54.781Z,55.43
2023-04-06T18:12:22.364Z,56.07
2023-04-06T18:14:49.993Z,56.28
2023-04-06T18:17:17.172Z,56.24
2023-04-06T18:19:44.845Z,56.18
2023-04-06T18:22:12.352Z,56.29
2023-04-06T18:24:42.670Z,57.57
2023-04-06T18:27:14.008Z,57.96
2023-04-06T18:29:45.608Z,58.32
2023-04-06T18:32:15.878Z,58.54
2023-04-06T18:34:45.690Z,58.87
2023-04-06T18:37:15.073Z,58.75
2023-04-06T18:39:43.830Z,59.80
2023-04-06T18:42:11.388Z,60.09
2023-04-06T18:44:39.545Z,60.97
2023-04-06T18:47:07.210Z,60.70
2023-04-06T18:49:34.934Z,60.36
2023-04-06T18:52:03.615Z,60.03
2023-04-06T18:54:31.466Z,59.72
2023-04-06T18:56:59.222Z,59.76
2023-04-06T18:59:30.724Z,59.44
2023-04-06T19:01:59.563Z,58.71
2023-04-06T19:04:27.366Z,59.53
2023-04-06T19:06:55.985Z,60.38
2023-04-06T19:09:23.922Z,60.06
2023-04-06T19:11:51.666Z,59.83
2023-04-06T19:14:20.156Z,60.72
2023-04-06T19:16:52.622Z,60.65
2023-04-06T19:19:26.161Z,61.04
2023-04-06T19:21:53.660Z,61.04
2023-04-06T19:24:21.509Z,61.90
2023-04-06T19:26:50.030Z,62.67
2023-04-06T19:29:17.681Z,63.33
2023-04-06T19:31:47.146Z,64.22
2023-04-06T19:34:18.078Z,65.16
2023-04-06T19:36:46.633Z,67.14
2023-04-06T19:39:18.433Z,69.54
2023-04-06T19:41:47.780Z,71.70
2023-04-06T19:44:16.110Z,73.70
2023-04-06T19:46:46.612Z,75.45
2023-04-06T19:49:14.766Z,76.37
2023-04-06T19:51:48.179Z,77.37
2023-04-06T19:54:15.678Z,78.12
2023-04-06T19:56:43.151Z,79.30
2023-04-06T19:59:11.438Z,80.28
2023-04-06T20:01:39.244Z,80.69
2023-04-06T20:04:13.294Z,80.54
2023-04-06T20:06:40.767Z,80.41
2023-04-06T20:09:09.715Z,80.98
2023-04-06T20:11:37.829Z,82.84
2023-04-06T20:14:11.320Z,84.49
2023-04-06T20:16:38.584Z,85.59
2023-04-06T20:19:06.290Z,86.87
2023-04-06T20:21:36.860Z,87.64
2023-04-06T20:24:06.227Z,88.37
2023-04-06T20:26:33.639Z,88.73
2023-04-06T20:29:01.219Z,89.34
2023-04-06T20:31:29.191Z,89.41
2023-04-06T20:33:56.701Z,89.30
2023-04-06T20:36:28.233Z,88.82
2023-04-06T20:38:55.481Z,88.71
2023-04-06T20:41:23.298Z,88.39
2023-04-06T20:43:50.898Z,88.80
2023-04-06T20:46:18.597Z,89.22
2023-04-06T20:48:45.791Z,89.21
2023-04-06T20:51:25.794Z,88.96
2023-04-06T20:53:53.135Z,89.06
2023-04-06T20:56:27.765Z,89.67
2023-04-06T20:58:57.569Z,88.96
2023-04-06T21:01:25.284Z,89.25
2023-04-06T21:03:59.558Z,89.88
2023-04-06T21:06:28.780Z,90.15
2023-04-06T21:08:56.291Z,90.10
2023-04-06T21:11:23.580Z,89.46
2023-04-06T21:13:51.152Z,89.57
2023-04-06T21:16:18.588Z,89.75
2023-04-06T21:18:46.991Z,89.50
2023-04-06T21:21:14.627Z,89.65
2023-04-06T21:23:42.023Z,89.50
2023-04-06T21:26:12.800Z,89.58
2023-04-06T21:28:39.950Z,89.57
2023-04-06T21:31:08.993Z,89.57
2023-04-06T21:33:36.480Z,89.26
2023-04-06T21:36:08.356Z,89.58
2023-04-06T21:38:35.996Z,88.77
2023-04-06T21:41:03.913Z,89.09
2023-04-06T21:43:31.320Z,89.15
2023-04-06T21:45:58.759Z,89.27
2023-04-06T21:48:26.246Z,89.10
2023-04-06T21:50:53.703Z,88.50
2023-04-06T21:53:21.250Z,88.08
2023-04-06T21:55:51.341Z,88.89
2023-04-06T21:58:21.721Z,89.07
2023-04-06T22:00:49.180Z,88.51
2023-04-06T22:03:16.775Z,88.88
2023-04-06T22:05:44.163Z,89.40
2023-04-06T22:08:17.825Z,90.08
2023-04-06T22:10:53.303Z,90.04
2023-04-06T22:13:20.696Z,90.51
2023-04-06T22:15:49.315Z,91.10
2023-04-06T22:18:16.727Z,91.87
2023-04-06T22:20:44.736Z,92.44
2023-04-06T22:23:12.391Z,92.73
2023-04-06T22:25:39.708Z,93.56
2023-04-06T22:28:07.166Z,94.56
2023-04-06T22:30:34.477Z,95.32
2023-04-06T22:33:03.109Z,96.55
2023-04-06T22:35:30.521Z,97.14
2023-04-06T22:38:00.857Z,98.13
2023-04-06T22:40:29.376Z,99.07
2023-04-06T22:42:56.831Z,99.94
2023-04-06T22:45:26.324Z,100.00
2023-04-06T22:47:53.494Z,100.00
2023-04-06T22:50:22.194Z,100.00
2023-04-06T22:52:49.385Z,100.00
2023-04-06T22:55:16.750Z,100.00
2023-04-06T22:57:44.363Z,100.00
2023-04-06T23:00:13.982Z,100.00
2023-04-06T23:02:41.481Z,100.00
2023-04-06T23:05:09.361Z,100.00
2023-04-06T23:07:36.414Z,100.00
2023-04-06T23:10:08.036Z,100.00
2023-04-06T23:12:35.614Z,100.00
2023-04-06T23:15:02.966Z,100.00
2023-04-06T23:17:30.765Z,100.00
2023-04-06T23:20:04.698Z,100.00
2023-04-06T23:22:33.258Z,100.00
2023-04-06T23:25:00.641Z,100.00
2023-04-06T23:27:28.124Z,100.00
2023-04-06T23:29:56.525Z,100.00
2023-04-06T23:32:23.952Z,100.00
2023-04-06T23:34:52.404Z,100.00
2023-04-06T23:37:20.937Z,100.00
2023-04-06T23:39:48.726Z,100.00
2023-04-06T23:42:17.067Z,100.00
2023-04-06T23:44:44.323Z,100.00
2023-04-06T23:47:12.269Z,100.00
2023-04-06T23:49:40.752Z,100.00
2023-04-06T23:52:08.173Z,100.00
2023-04-06T23:54:35.921Z,100.00
2023-04-06T23:57:04.135Z,100.00
2023-04-06T23:59:31.636Z,100.00
